Time;durP1;ratioP1;P1;durP2;ratioP2;P2;SDS_P1;SDS_P2;PMS_P1;PMS_P2;Temp;Humidity;BMP_temperature;BMP_pressure;BME280_temperature;BME280_humidity;BME280_pressure;Samples;Min_cycle;Max_cycle;Signal;HPM_P1;HPM_P2
2022/07/12 00:00:39;;;;;;;6.43;5.90;;;;;;;;;;2072867;28;20227;-51
2022/07/12 00:01:40;;;;;;;6.22;5.75;;;;;;;;;;2072788;28;20798;-52
2022/07/12 00:02:40;;;;;;;6.45;6.00;;;;;;;;;;2074278;28;20184;-54
2022/07/12 00:03:40;;;;;;;7.00;6.40;;;;;;;;;;2073228;28;20200;-54
2022/07/12 00:04:41;;;;;;;7.43;6.82;;;;;;;;;;2071854;28;20189;-54
2022/07/12 00:05:41;;;;;;;6.88;6.28;;;;;;;;;;2073667;28;20207;-53
2022/07/12 00:06:42;;;;;;;5.72;5.32;;;;;;;;;;2072434;28;20204;-52
2022/07/12 00:07:42;;;;;;;6.28;5.68;;;;;;;;;;2072654;28;20165;-50
2022/07/12 00:08:42;;;;;;;5.90;5.50;;;;;;;;;;2072722;28;20169;-54
2022/07/12 00:09:43;;;;;;;5.68;5.28;;;;;;;;;;2073442;28;20181;-51
2022/07/12 00:10:43;;;;;;;5.40;5.00;;;;;;;;;;2073204;28;20180;-55
2022/07/12 00:11:44;;;;;;;5.72;5.22;;;;;;;;;;2076029;28;20334;-50
2022/07/12 00:12:44;;;;;;;6.10;5.60;;;;;;;;;;2081128;28;20167;-55
2022/07/12 00:13:44;;;;;;;8.57;7.88;;;;;;;;;;2081379;28;20211;-50
2022/07/12 00:14:45;;;;;;;6.43;5.82;;;;;;;;;;2080431;28;20180;-52
2022/07/12 00:15:45;;;;;;;6.32;5.80;;;;;;;;;;2074645;28;20177;-52
2022/07/12 00:16:45;;;;;;;6.85;6.35;;;;;;;;;;2073111;28;20555;-53
2022/07/12 00:17:46;;;;;;;9.70;8.80;;;;;;;;;;2073269;28;20272;-51
2022/07/12 00:18:46;;;;;;;7.13;6.53;;;;;;;;;;2073189;28;20243;-50
2022/07/12 00:19:46;;;;;;;7.13;6.43;;;;;;;;;;2073159;28;20188;-50
2022/07/12 00:20:47;;;;;;;6.68;6.07;;;;;;;;;;2073296;28;20550;-54
2022/07/12 00:21:47;;;;;;;6.80;6.30;;;;;;;;;;2076136;28;20699;-54
2022/07/12 00:22:47;;;;;;;7.43;6.82;;;;;;;;;;2081534;28;20172;-53
2022/07/12 00:23:48;;;;;;;6.32;5.90;;;;;;;;;;2081277;28;20208;-54
2022/07/12 00:24:48;;;;;;;7.60;5.85;;;;;;;;;;2080556;28;20244;-53
2022/07/12 00:25:48;;;;;;;6.50;6.00;;;;;;;;;;2081264;28;20231;-51
2022/07/12 00:26:49;;;;;;;6.50;5.85;;;;;;;;;;2078979;28;20246;-54
2022/07/12 00:27:50;;;;;;;5.82;5.43;;;;;;;;;;2072319;28;20215;-53
2022/07/12 00:28:50;;;;;;;6.20;5.75;;;;;;;;;;2072639;28;20172;-53
2022/07/12 00:29:50;;;;;;;6.40;5.82;;;;;;;;;;2073041;28;20179;-50
2022/07/12 00:30:50;;;;;;;6.05;5.63;;;;;;;;;;2073228;28;20192;-51
2022/07/12 00:31:51;;;;;;;6.43;5.85;;;;;;;;;;2080177;28;20261;-52
2022/07/12 00:32:51;;;;;;;6.43;5.93;;;;;;;;;;2081475;28;20172;-54
2022/07/12 00:33:52;;;;;;;6.43;5.93;;;;;;;;;;2080711;28;20218;-53
2022/07/12 00:34:52;;;;;;;6.13;5.22;;;;;;;;;;2080716;28;20165;-56
2022/07/12 00:35:52;;;;;;;6.18;5.53;;;;;;;;;;2081259;28;20179;-53
2022/07/12 00:36:52;;;;;;;6.60;6.18;;;;;;;;;;2079741;28;20178;-58
2022/07/12 00:37:53;;;;;;;7.05;6.45;;;;;;;;;;2076546;28;20181;-54
2022/07/12 00:38:53;;;;;;;6.60;6.10;;;;;;;;;;2079502;28;20172;-51
2022/07/12 00:39:54;;;;;;;7.00;6.50;;;;;;;;;;2080817;28;20190;-52
2022/07/12 00:40:55;;;;;;;6.97;6.38;;;;;;;;;;2064558;28;20177;-52
2022/07/12 00:41:55;;;;;;;7.20;6.60;;;;;;;;;;2076385;28;20604;-51
2022/07/12 00:42:55;;;;;;;6.68;6.18;;;;;;;;;;2073138;28;20558;-50
2022/07/12 00:43:56;;;;;;;7.10;6.45;;;;;;;;;;2073641;28;20208;-50
2022/07/12 00:44:56;;;;;;;7.05;6.45;;;;;;;;;;2076569;28;20263;-54
2022/07/12 00:45:56;;;;;;;6.25;5.78;;;;;;;;;;2072532;28;20727;-53
2022/07/12 00:46:57;;;;;;;6.05;5.65;;;;;;;;;;2073396;28;20204;-57
2022/07/12 00:47:57;;;;;;;6.10;5.70;;;;;;;;;;2073052;28;20182;-54
2022/07/12 00:48:58;;;;;;;6.75;6.20;;;;;;;;;;2073390;28;20172;-51
2022/07/12 00:49:59;;;;;;;6.50;6.00;;;;;;;;;;2073220;28;20196;-54
2022/07/12 00:51:00;;;;;;;6.47;6.00;;;;;;;;;;2073021;28;20623;-55
2022/07/12 00:52:01;;;;;;;6.00;5.60;;;;;;;;;;2080521;28;20548;-52
2022/07/12 00:53:01;;;;;;;6.25;5.68;;;;;;;;;;2080451;28;20184;-56
2022/07/12 00:54:03;;;;;;;6.47;6.03;;;;;;;;;;2073003;28;20275;-54
2022/07/12 00:55:04;;;;;;;6.22;5.63;;;;;;;;;;2074827;28;20247;-57
2022/07/12 00:56:05;;;;;;;8.18;5.70;;;;;;;;;;2074954;28;20165;-54
2022/07/12 00:57:05;;;;;;;6.03;5.53;;;;;;;;;;2074410;28;20611;-54
2022/07/12 00:58:06;;;;;;;5.70;5.20;;;;;;;;;;2074764;28;20177;-55
2022/07/12 00:59:06;;;;;;;5.95;5.45;;;;;;;;;;2074666;28;20223;-53
2022/07/12 01:00:08;;;;;;;6.40;5.90;;;;;;;;;;2074863;28;20169;-55
2022/07/12 01:01:09;;;;;;;6.20;5.70;;;;;;;;;;2073692;28;20697;-54
2022/07/12 01:02:10;;;;;;;5.60;5.20;;;;;;;;;;2073753;28;20169;-53
2022/07/12 01:03:13;;;;;;;5.68;5.28;;;;;;;;;;2073763;28;20169;-53
2022/07/12 01:04:17;;;;;;;5.47;5.00;;;;;;;;;;2072738;28;20165;-54
2022/07/12 01:05:17;;;;;;;5.57;5.13;;;;;;;;;;2073144;28;20180;-53
2022/07/12 01:06:19;;;;;;;5.40;5.10;;;;;;;;;;2072909;28;20529;-50
2022/07/12 01:07:20;;;;;;;5.13;4.82;;;;;;;;;;2072939;28;20248;-56
2022/07/12 01:08:20;;;;;;;5.78;5.25;;;;;;;;;;2072892;28;20327;-55
2022/07/12 01:09:21;;;;;;;5.28;4.95;;;;;;;;;;2073951;28;20666;-53
2022/07/12 01:10:21;;;;;;;5.70;5.30;;;;;;;;;;2074491;28;20189;-55
2022/07/12 01:11:22;;;;;;;5.20;4.90;;;;;;;;;;2076859;28;20164;-55
2022/07/12 01:12:23;;;;;;;5.75;5.38;;;;;;;;;;2082757;28;20180;-54
2022/07/12 01:13:24;;;;;;;5.00;4.70;;;;;;;;;;2082552;28;20156;-54
2022/07/12 01:14:24;;;;;;;5.80;5.40;;;;;;;;;;2081861;28;20526;-52
2022/07/12 01:15:25;;;;;;;5.18;4.78;;;;;;;;;;2080224;28;20239;-52
2022/07/12 01:16:25;;;;;;;5.68;5.20;;;;;;;;;;2076868;28;20177;-53
2022/07/12 01:17:26;;;;;;;5.43;5.03;;;;;;;;;;2074472;28;20173;-51
2022/07/12 01:18:27;;;;;;;5.75;5.35;;;;;;;;;;2073940;28;20187;-51
2022/07/12 01:19:28;;;;;;;6.15;5.60;;;;;;;;;;2073924;28;20181;-52
2022/07/12 01:20:29;;;;;;;5.90;5.50;;;;;;;;;;2089863;28;20188;-53
2022/07/12 01:21:31;;;;;;;5.95;5.45;;;;;;;;;;2090095;28;20176;-54
2022/07/12 01:22:32;;;;;;;6.40;5.90;;;;;;;;;;2074530;28;20600;-52
2022/07/12 01:23:34;;;;;;;6.72;6.10;;;;;;;;;;2074382;28;20192;-55
2022/07/12 01:24:34;;;;;;;5.43;5.03;;;;;;;;;;2073778;28;20180;-54
2022/07/12 01:25:35;;;;;;;5.50;5.10;;;;;;;;;;2075425;28;20168;-55
2022/07/12 01:26:36;;;;;;;5.53;5.13;;;;;;;;;;2074354;28;20283;-51
2022/07/12 01:27:37;;;;;;;5.97;5.57;;;;;;;;;;2066394;28;20272;-54
2022/07/12 01:28:38;;;;;;;5.25;4.95;;;;;;;;;;2074542;28;20164;-53
2022/07/12 01:29:38;;;;;;;5.68;5.28;;;;;;;;;;2075649;28;20173;-53
2022/07/12 01:30:40;;;;;;;6.53;5.55;;;;;;;;;;2073685;28;20674;-51
2022/07/12 01:31:41;;;;;;;5.80;5.40;;;;;;;;;;2080226;28;20176;-51
2022/07/12 01:32:41;;;;;;;5.57;5.18;;;;;;;;;;2082672;28;20633;-53
2022/07/12 01:33:42;;;;;;;6.07;5.57;;;;;;;;;;2079765;28;20212;-55
2022/07/12 01:34:43;;;;;;;6.03;5.72;;;;;;;;;;2073551;28;20200;-50
2022/07/12 01:35:43;;;;;;;5.97;5.38;;;;;;;;;;2074682;28;20168;-53
2022/07/12 01:36:43;;;;;;;6.25;5.75;;;;;;;;;;2074708;28;20185;-56
2022/07/12 01:37:44;;;;;;;6.50;5.90;;;;;;;;;;2082188;28;20223;-56
2022/07/12 01:38:44;;;;;;;6.38;5.63;;;;;;;;;;2082602;28;20776;-54
2022/07/12 01:39:45;;;;;;;5.68;5.28;;;;;;;;;;2082697;28;20653;-53
2022/07/12 01:40:45;;;;;;;6.28;5.68;;;;;;;;;;2075379;28;20227;-55
2022/07/12 01:41:46;;;;;;;6.18;5.68;;;;;;;;;;2074615;28;20185;-53
2022/07/12 01:42:47;;;;;;;5.78;5.35;;;;;;;;;;2074466;28;20332;-57
2022/07/12 01:43:48;;;;;;;6.50;6.00;;;;;;;;;;2074622;28;20208;-48
2022/07/12 01:44:49;;;;;;;5.78;5.38;;;;;;;;;;2074717;28;20172;-50
2022/07/12 01:45:49;;;;;;;6.10;5.50;;;;;;;;;;2081678;28;20251;-50
2022/07/12 01:46:50;;;;;;;5.97;5.53;;;;;;;;;;2083564;28;20200;-54
2022/07/12 01:47:50;;;;;;;5.68;5.28;;;;;;;;;;2074259;28;20204;-52
2022/07/12 01:48:50;;;;;;;5.80;5.40;;;;;;;;;;2075663;28;20189;-54
2022/07/12 01:49:51;;;;;;;5.38;4.97;;;;;;;;;;2075489;28;20165;-52
2022/07/12 01:50:51;;;;;;;5.85;5.25;;;;;;;;;;2076383;28;20571;-53
2022/07/12 01:51:51;;;;;;;5.70;5.30;;;;;;;;;;2075575;28;20185;-51
2022/07/12 01:52:52;;;;;;;5.07;4.78;;;;;;;;;;2075445;28;20201;-51
2022/07/12 01:53:52;;;;;;;5.25;4.85;;;;;;;;;;2075319;28;20197;-48
2022/07/12 01:54:56;;;;;;;5.93;5.45;;;;;;;;;;2081028;28;20686;-53
2022/07/12 01:55:57;;;;;;;6.45;5.85;;;;;;;;;;2083612;28;20176;-52
2022/07/12 01:56:57;;;;;;;5.88;5.43;;;;;;;;;;2076894;28;20196;-56
2022/07/12 01:57:57;;;;;;;6.03;5.53;;;;;;;;;;2076035;28;20303;-53
2022/07/12 01:58:58;;;;;;;5.88;5.45;;;;;;;;;;2075994;28;20231;-52
2022/07/12 02:00:00;;;;;;;6.18;5.60;;;;;;;;;;2077514;28;20726;-56
2022/07/12 02:01:00;;;;;;;6.15;5.75;;;;;;;;;;2076552;28;20188;-52
2022/07/12 02:02:01;;;;;;;6.10;5.70;;;;;;;;;;2076194;28;20192;-52
2022/07/12 02:03:01;;;;;;;6.78;6.28;;;;;;;;;;2075113;28;20181;-57
2022/07/12 02:04:02;;;;;;;7.03;6.40;;;;;;;;;;2073863;28;20709;-56
2022/07/12 02:05:03;;;;;;;7.50;6.90;;;;;;;;;;2074556;28;20171;-50
2022/07/12 02:06:03;;;;;;;7.35;6.68;;;;;;;;;;2074820;28;20196;-53
2022/07/12 02:07:04;;;;;;;6.22;5.72;;;;;;;;;;2074009;28;20173;-54
2022/07/12 02:08:04;;;;;;;6.68;6.18;;;;;;;;;;2074557;28;20177;-52
2022/07/12 02:09:05;;;;;;;6.65;6.05;;;;;;;;;;2074638;28;20187;-52
2022/07/12 02:10:06;;;;;;;7.00;6.30;;;;;;;;;;2074716;28;20165;-53
2022/07/12 02:11:06;;;;;;;6.97;6.47;;;;;;;;;;2078960;28;20172;-56
2022/07/12 02:12:06;;;;;;;7.18;6.60;;;;;;;;;;2082938;28;20693;-53
2022/07/12 02:13:07;;;;;;;7.57;6.97;;;;;;;;;;2083030;28;20175;-50
2022/07/12 02:14:07;;;;;;;7.18;6.50;;;;;;;;;;2082088;28;20172;-52
2022/07/12 02:15:08;;;;;;;7.07;6.47;;;;;;;;;;2082785;28;20173;-52
2022/07/12 02:16:08;;;;;;;7.32;6.70;;;;;;;;;;2082172;28;20259;-51
2022/07/12 02:17:08;;;;;;;8.00;7.18;;;;;;;;;;2074745;28;20177;-51
2022/07/12 02:18:09;;;;;;;7.28;6.70;;;;;;;;;;2074360;28;20172;-51
2022/07/12 02:19:12;;;;;;;7.18;6.65;;;;;;;;;;2078508;28;20235;-51
2022/07/12 02:20:12;;;;;;;6.75;6.18;;;;;;;;;;2076709;28;20169;-55
2022/07/12 02:21:13;;;;;;;6.70;6.15;;;;;;;;;;2079457;28;20176;-52
2022/07/12 02:22:13;;;;;;;6.40;5.80;;;;;;;;;;2082105;28;20653;-53
2022/07/12 02:23:13;;;;;;;6.63;6.10;;;;;;;;;;2081946;28;20192;-49
2022/07/12 02:24:14;;;;;;;6.93;6.43;;;;;;;;;;2081575;28;20156;-51
2022/07/12 02:25:14;;;;;;;5.63;5.22;;;;;;;;;;2082605;28;20281;-48
2022/07/12 02:26:15;;;;;;;5.90;5.50;;;;;;;;;;2081889;28;20164;-52
2022/07/12 02:27:15;;;;;;;5.78;5.05;;;;;;;;;;2082366;28;20168;-50
2022/07/12 02:28:16;;;;;;;6.47;5.97;;;;;;;;;;2082105;28;20617;-51
2022/07/12 02:29:16;;;;;;;6.80;6.20;;;;;;;;;;2082571;28;20156;-52
2022/07/12 02:30:16;;;;;;;6.65;6.15;;;;;;;;;;2082182;28;20966;-49
2022/07/12 02:31:17;;;;;;;5.80;5.25;;;;;;;;;;2076890;28;20208;-50
2022/07/12 02:32:17;;;;;;;6.10;5.70;;;;;;;;;;2076732;28;20653;-53
2022/07/12 02:33:19;;;;;;;6.00;5.45;;;;;;;;;;2079467;28;20164;-54
2022/07/12 02:34:19;;;;;;;6.30;5.82;;;;;;;;;;2073023;28;20651;-51
2022/07/12 02:35:20;;;;;;;6.50;5.90;;;;;;;;;;2074050;28;20181;-53
2022/07/12 02:36:21;;;;;;;5.90;5.53;;;;;;;;;;2074018;28;20177;-50
2022/07/12 02:37:21;;;;;;;6.35;5.78;;;;;;;;;;2073882;28;20185;-53
2022/07/12 02:38:21;;;;;;;6.22;5.72;;;;;;;;;;2074012;28;20177;-52
2022/07/12 02:39:22;;;;;;;6.38;5.93;;;;;;;;;;2073823;28;20165;-53
2022/07/12 02:41:41;;;;;;;7.20;6.70;;;;;;;;;;2073699;28;20145;-50
2022/07/12 02:42:41;;;;;;;6.80;6.30;;;;;;;;;;2073866;28;20678;-51
2022/07/12 02:43:42;;;;;;;7.20;6.50;;;;;;;;;;2073721;28;20280;-52
2022/07/12 02:44:42;;;;;;;6.65;6.15;;;;;;;;;;2072769;28;20199;-56
2022/07/12 02:45:42;;;;;;;6.40;5.90;;;;;;;;;;2073910;28;20169;-54
2022/07/12 02:46:42;;;;;;;6.72;6.22;;;;;;;;;;2073713;28;20223;-53
2022/07/12 02:47:43;;;;;;;7.15;6.55;;;;;;;;;;2096001;28;20228;-53
2022/07/12 02:48:43;;;;;;;7.78;7.18;;;;;;;;;;2087322;28;20232;-54
2022/07/12 02:49:43;;;;;;;7.60;7.00;;;;;;;;;;2064822;28;20260;-53
2022/07/12 02:50:44;;;;;;;7.22;6.53;;;;;;;;;;2073036;28;20184;-55
2022/07/12 02:51:44;;;;;;;7.47;6.88;;;;;;;;;;2073746;28;20177;-53
2022/07/12 02:52:45;;;;;;;7.55;6.95;;;;;;;;;;2073386;28;20199;-54
2022/07/12 02:53:45;;;;;;;7.05;6.45;;;;;;;;;;2080697;28;20186;-52
2022/07/12 02:54:45;;;;;;;6.38;5.82;;;;;;;;;;2080993;28;20176;-54
2022/07/12 02:55:45;;;;;;;6.28;5.82;;;;;;;;;;2081868;28;20171;-55
2022/07/12 02:56:46;;;;;;;6.30;5.90;;;;;;;;;;2075858;28;20876;-51
2022/07/12 02:57:46;;;;;;;7.07;5.65;;;;;;;;;;2073354;28;20180;-50
2022/07/12 02:58:46;;;;;;;5.45;5.15;;;;;;;;;;2074873;28;20172;-53
2022/07/12 02:59:47;;;;;;;6.60;6.03;;;;;;;;;;2073652;28;20206;-53
2022/07/12 03:00:47;;;;;;;6.50;6.00;;;;;;;;;;2073593;28;20181;-54
2022/07/12 03:01:48;;;;;;;6.68;6.18;;;;;;;;;;2076878;28;20191;-51
2022/07/12 03:02:48;;;;;;;6.75;6.25;;;;;;;;;;2073722;28;20735;-52
2022/07/12 03:03:49;;;;;;;6.15;5.72;;;;;;;;;;2073470;28;20286;-50
2022/07/12 03:04:49;;;;;;;6.35;5.95;;;;;;;;;;2073027;28;20210;-52
2022/07/12 03:05:49;;;;;;;6.57;6.13;;;;;;;;;;2073991;28;20244;-53
2022/07/12 03:06:50;;;;;;;6.80;6.30;;;;;;;;;;2072999;28;20212;-53
2022/07/12 03:07:50;;;;;;;6.95;6.35;;;;;;;;;;2078641;28;20176;-50
2022/07/12 03:08:50;;;;;;;5.95;5.55;;;;;;;;;;2081217;28;20231;-52
2022/07/12 03:09:51;;;;;;;7.10;6.50;;;;;;;;;;2073733;28;20572;-52
2022/07/12 03:10:51;;;;;;;6.47;5.90;;;;;;;;;;2073663;28;20168;-49
2022/07/12 03:11:51;;;;;;;6.47;5.95;;;;;;;;;;2073421;28;20644;-56
2022/07/12 03:12:52;;;;;;;6.65;6.22;;;;;;;;;;2072938;28;20259;-54
2022/07/12 03:13:52;;;;;;;5.60;5.20;;;;;;;;;;2072451;28;20246;-52
2022/07/12 03:14:53;;;;;;;6.43;5.93;;;;;;;;;;2073381;28;20172;-50
2022/07/12 03:15:54;;;;;;;6.15;5.65;;;;;;;;;;2073596;28;20544;-52
2022/07/12 03:16:54;;;;;;;6.47;5.97;;;;;;;;;;2073690;28;20192;-52
2022/07/12 03:17:54;;;;;;;6.45;5.97;;;;;;;;;;2071638;28;20165;-51
2022/07/12 03:18:55;;;;;;;6.50;5.90;;;;;;;;;;2073626;28;20192;-52
2022/07/12 03:19:55;;;;;;;6.10;5.60;;;;;;;;;;2073646;28;20199;-54
2022/07/12 03:20:55;;;;;;;6.65;6.05;;;;;;;;;;2073831;28;20177;-52
2022/07/12 03:21:56;;;;;;;5.85;5.45;;;;;;;;;;2073515;28;20169;-51
2022/07/12 03:22:56;;;;;;;5.70;5.18;;;;;;;;;;2089469;28;20278;-55
2022/07/12 03:23:58;;;;;;;6.20;5.70;;;;;;;;;;2089223;28;20253;-54
2022/07/12 03:24:58;;;;;;;6.10;5.68;;;;;;;;;;2073231;28;20634;-50
2022/07/12 03:25:58;;;;;;;6.13;5.63;;;;;;;;;;2073379;28;20260;-55
2022/07/12 03:26:59;;;;;;;6.38;5.88;;;;;;;;;;2072787;28;20196;-53
2022/07/12 03:27:59;;;;;;;6.65;6.07;;;;;;;;;;2072837;28;20172;-57
2022/07/12 03:29:02;;;;;;;6.50;5.80;;;;;;;;;;2073627;28;20181;-52
2022/07/12 03:30:03;;;;;;;6.55;6.05;;;;;;;;;;2073538;28;20245;-53
2022/07/12 03:31:03;;;;;;;7.13;6.50;;;;;;;;;;2073321;28;20657;-54
2022/07/12 03:32:03;;;;;;;7.00;6.43;;;;;;;;;;2073652;28;20177;-56
2022/07/12 03:33:04;;;;;;;6.68;6.18;;;;;;;;;;2073518;28;20219;-51
2022/07/12 03:34:04;;;;;;;6.07;5.60;;;;;;;;;;2072402;28;20666;-50
2022/07/12 03:35:05;;;;;;;6.75;6.15;;;;;;;;;;2100251;23;20191;-53
2022/07/12 03:36:08;;;;;;;6.18;5.70;;;;;;;;;;2064215;28;20243;-54
2022/07/12 03:37:08;;;;;;;6.78;6.30;;;;;;;;;;2071784;28;20220;-53
2022/07/12 03:38:09;;;;;;;5.85;5.45;;;;;;;;;;2072225;28;20181;-53
2022/07/12 03:39:09;;;;;;;5.65;5.25;;;;;;;;;;2069663;28;20633;-54
2022/07/12 03:40:10;;;;;;;6.75;6.18;;;;;;;;;;2072981;28;20173;-58
2022/07/12 03:41:10;;;;;;;6.60;6.20;;;;;;;;;;2073225;28;20176;-53
2022/07/12 03:42:13;;;;;;;6.30;5.80;;;;;;;;;;2072709;28;20195;-52
2022/07/12 03:43:14;;;;;;;7.38;6.63;;;;;;;;;;2072690;28;20625;-53
2022/07/12 03:44:14;;;;;;;6.85;6.20;;;;;;;;;;2072156;28;20173;-54
2022/07/12 03:45:15;;;;;;;6.78;6.10;;;;;;;;;;2072973;28;20172;-55
2022/07/12 03:46:15;;;;;;;6.78;6.18;;;;;;;;;;2073171;28;20181;-53
2022/07/12 03:47:15;;;;;;;6.88;6.22;;;;;;;;;;2073241;28;20165;-56
2022/07/12 03:48:16;;;;;;;6.15;5.55;;;;;;;;;;2072328;28;20306;-57
2022/07/12 03:49:17;;;;;;;6.07;5.57;;;;;;;;;;2069678;28;20196;-56
2022/07/12 03:50:17;;;;;;;6.50;6.00;;;;;;;;;;2064393;28;20169;-54
2022/07/12 03:51:17;;;;;;;5.95;5.45;;;;;;;;;;2073382;28;20195;-53
2022/07/12 03:52:18;;;;;;;6.32;5.75;;;;;;;;;;2076545;28;20580;-54
2022/07/12 03:53:18;;;;;;;5.97;5.47;;;;;;;;;;2078767;28;20177;-55
2022/07/12 03:54:18;;;;;;;6.35;5.75;;;;;;;;;;2077622;28;20479;-58
2022/07/12 03:55:19;;;;;;;6.95;6.35;;;;;;;;;;2077369;28;20192;-55
2022/07/12 03:57:38;;;;;;;5.82;5.35;;;;;;;;;;2074035;28;20660;-53
2022/07/12 03:58:38;;;;;;;6.15;5.70;;;;;;;;;;2070677;28;20176;-56
2022/07/12 03:59:39;;;;;;;6.15;5.55;;;;;;;;;;2074729;28;20646;-56
2022/07/12 04:00:42;;;;;;;6.28;5.88;;;;;;;;;;2081460;28;20267;-55
2022/07/12 04:01:43;;;;;;;6.57;6.03;;;;;;;;;;2081608;28;20168;-53
2022/07/12 04:02:43;;;;;;;6.07;5.57;;;;;;;;;;2081472;28;20255;-54
2022/07/12 04:03:44;;;;;;;6.20;5.70;;;;;;;;;;2081563;28;20617;-53
2022/07/12 04:04:44;;;;;;;6.45;6.05;;;;;;;;;;2079828;28;20168;-55
2022/07/12 04:05:44;;;;;;;6.07;5.55;;;;;;;;;;2080872;28;20192;-56
2022/07/12 04:06:46;;;;;;;5.75;5.35;;;;;;;;;;2080622;28;20257;-58
2022/07/12 04:07:46;;;;;;;7.57;6.85;;;;;;;;;;2075730;28;20179;-54
2022/07/12 04:08:46;;;;;;;6.47;5.93;;;;;;;;;;2072889;28;20641;-57
2022/07/12 04:09:47;;;;;;;5.70;5.30;;;;;;;;;;2072625;28;20219;-56
2022/07/12 04:10:47;;;;;;;6.50;5.60;;;;;;;;;;2067346;28;20208;-54
2022/07/12 04:11:47;;;;;;;5.43;5.10;;;;;;;;;;2077986;28;20595;-56
2022/07/12 04:12:47;;;;;;;5.88;5.35;;;;;;;;;;2078676;28;20239;-54
2022/07/12 04:13:48;;;;;;;5.30;5.00;;;;;;;;;;2078184;28;20700;-56
2022/07/12 04:14:48;;;;;;;5.43;5.03;;;;;;;;;;2077732;28;20200;-56
2022/07/12 04:15:48;;;;;;;5.38;5.07;;;;;;;;;;2077728;28;20181;-56
2022/07/12 04:16:49;;;;;;;5.85;5.35;;;;;;;;;;2078151;28;20532;-52
2022/07/12 04:17:49;;;;;;;5.97;5.57;;;;;;;;;;2075759;28;20169;-55
2022/07/12 04:18:49;;;;;;;6.60;6.03;;;;;;;;;;2073953;28;20665;-56
2022/07/12 04:19:50;;;;;;;6.00;5.60;;;;;;;;;;2081225;28;20183;-53
2022/07/12 04:20:50;;;;;;;6.18;5.68;;;;;;;;;;2081753;28;20592;-54
2022/07/12 04:21:51;;;;;;;6.50;5.88;;;;;;;;;;2081398;28;20250;-55
2022/07/12 04:22:51;;;;;;;6.03;5.53;;;;;;;;;;2081436;28;20171;-53
2022/07/12 04:23:51;;;;;;;6.05;5.65;;;;;;;;;;2081024;28;20164;-56
2022/07/12 04:24:52;;;;;;;5.50;5.07;;;;;;;;;;2081007;28;20529;-53
2022/07/12 04:25:52;;;;;;;4.90;4.60;;;;;;;;;;2081178;28;20191;-54
2022/07/12 04:26:52;;;;;;;5.28;4.97;;;;;;;;;;2081303;28;20724;-57
2022/07/12 04:27:53;;;;;;;5.75;5.35;;;;;;;;;;2080755;28;20168;-55
2022/07/12 04:28:53;;;;;;;5.70;5.30;;;;;;;;;;2080312;28;20181;-56
2022/07/12 04:29:53;;;;;;;5.90;5.32;;;;;;;;;;2073134;28;20205;-53
2022/07/12 04:30:54;;;;;;;5.70;5.40;;;;;;;;;;2073225;28;20280;-58
2022/07/12 04:31:54;;;;;;;7.30;6.68;;;;;;;;;;2073261;28;20177;-52
2022/07/12 04:32:54;;;;;;;6.78;6.25;;;;;;;;;;2073277;28;20193;-58
2022/07/12 04:33:55;;;;;;;6.93;6.43;;;;;;;;;;2072151;28;20177;-56
2022/07/12 04:34:55;;;;;;;6.35;5.85;;;;;;;;;;2072327;28;20196;-56
2022/07/12 04:35:55;;;;;;;6.22;5.82;;;;;;;;;;2073205;28;20205;-56
2022/07/12 04:36:56;;;;;;;8.25;6.70;;;;;;;;;;2073421;28;20169;-54
2022/07/12 04:37:56;;;;;;;6.15;5.75;;;;;;;;;;2073433;28;20165;-52
2022/07/12 04:38:56;;;;;;;7.88;6.40;;;;;;;;;;2073642;28;20180;-52
2022/07/12 04:39:57;;;;;;;7.53;6.82;;;;;;;;;;2081883;28;20255;-56
2022/07/12 04:40:57;;;;;;;9.63;7.07;;;;;;;;;;2081644;28;20216;-57
2022/07/12 04:41:57;;;;;;;8.52;6.78;;;;;;;;;;2081704;28;20164;-55
2022/07/12 04:42:57;;;;;;;8.05;7.35;;;;;;;;;;2081733;28;20164;-53
2022/07/12 04:43:58;;;;;;;6.57;5.97;;;;;;;;;;2075272;28;20181;-60
2022/07/12 04:44:58;;;;;;;7.03;6.43;;;;;;;;;;2070228;28;20752;-53
2022/07/12 04:46:05;;;;;;;7.57;6.80;;;;;;;;;;2074695;28;20220;-56
2022/07/12 04:47:05;;;;;;;6.45;5.93;;;;;;;;;;2074809;28;20303;-55
2022/07/12 04:48:06;;;;;;;7.10;6.50;;;;;;;;;;2075512;28;20180;-55
2022/07/12 04:49:06;;;;;;;7.70;7.03;;;;;;;;;;2075382;28;20268;-53
2022/07/12 04:50:07;;;;;;;7.07;6.47;;;;;;;;;;2074838;28;20165;-53
2022/07/12 04:51:07;;;;;;;6.95;6.45;;;;;;;;;;2075262;28;20169;-56
2022/07/12 04:52:08;;;;;;;6.93;6.30;;;;;;;;;;2077917;28;20193;-53
2022/07/12 04:53:08;;;;;;;7.40;6.70;;;;;;;;;;2083800;28;20198;-56
2022/07/12 04:54:09;;;;;;;7.20;6.70;;;;;;;;;;2082923;28;20187;-55
2022/07/12 04:55:09;;;;;;;7.25;6.65;;;;;;;;;;2082833;28;20176;-54
2022/07/12 04:56:10;;;;;;;7.40;6.90;;;;;;;;;;2082789;28;20176;-57
2022/07/12 04:57:10;;;;;;;8.23;7.60;;;;;;;;;;2075735;28;20208;-57
2022/07/12 04:58:10;;;;;;;8.00;7.18;;;;;;;;;;2075961;28;20165;-58
2022/07/12 04:59:10;;;;;;;8.00;7.35;;;;;;;;;;2076943;28;20275;-53
2022/07/12 05:00:11;;;;;;;7.30;6.80;;;;;;;;;;2076707;28;20181;-54
2022/07/12 05:01:11;;;;;;;9.07;7.47;;;;;;;;;;2075641;28;20165;-55
2022/07/12 05:02:11;;;;;;;7.05;6.55;;;;;;;;;;2075883;28;20197;-55
2022/07/12 05:03:12;;;;;;;7.05;6.55;;;;;;;;;;2075523;28;20188;-54
2022/07/12 05:04:12;;;;;;;7.93;7.22;;;;;;;;;;2074939;28;20188;-55
2022/07/12 05:05:14;;;;;;;8.15;7.35;;;;;;;;;;2075624;28;20227;-55
2022/07/12 05:06:14;;;;;;;6.55;5.95;;;;;;;;;;2076332;28;20169;-53
2022/07/12 05:07:14;;;;;;;7.05;6.50;;;;;;;;;;2076364;28;20575;-54
2022/07/12 05:08:15;;;;;;;6.90;6.40;;;;;;;;;;2075745;28;20587;-55
2022/07/12 05:09:15;;;;;;;7.28;6.68;;;;;;;;;;2076638;28;20196;-57
2022/07/12 05:10:15;;;;;;;7.15;6.55;;;;;;;;;;2075872;28;20176;-53
2022/07/12 05:11:16;;;;;;;7.20;6.70;;;;;;;;;;2075782;28;20169;-53
2022/07/12 05:12:16;;;;;;;6.50;6.00;;;;;;;;;;2076015;28;20185;-54
2022/07/12 05:13:17;;;;;;;7.60;6.90;;;;;;;;;;2075459;28;20587;-57
2022/07/12 05:14:17;;;;;;;7.00;6.47;;;;;;;;;;2074786;28;20169;-55
2022/07/12 05:15:18;;;;;;;9.15;8.07;;;;;;;;;;2075681;28;20232;-54
2022/07/12 05:16:19;;;;;;;7.03;6.53;;;;;;;;;;2075478;28;20663;-55
2022/07/12 05:17:19;;;;;;;8.10;7.47;;;;;;;;;;2076642;28;20161;-54
2022/07/12 05:18:20;;;;;;;6.88;6.47;;;;;;;;;;2075377;28;20657;-56
2022/07/12 05:19:21;;;;;;;7.07;6.57;;;;;;;;;;2075141;28;20684;-55
2022/07/12 05:20:21;;;;;;;6.85;6.30;;;;;;;;;;2075392;28;20218;-54
2022/07/12 05:21:21;;;;;;;7.93;7.22;;;;;;;;;;2075371;28;20165;-53
2022/07/12 05:22:22;;;;;;;7.07;6.57;;;;;;;;;;2075403;28;20642;-55
2022/07/12 05:23:22;;;;;;;7.90;7.30;;;;;;;;;;2074542;28;20180;-52
2022/07/12 05:24:22;;;;;;;7.30;6.80;;;;;;;;;;2073051;28;20192;-57
2022/07/12 05:25:23;;;;;;;9.32;8.55;;;;;;;;;;2074744;28;20192;-54
2022/07/12 05:26:23;;;;;;;9.10;8.30;;;;;;;;;;2074501;28;20204;-54
2022/07/12 05:27:23;;;;;;;8.93;8.15;;;;;;;;;;2074643;28;20543;-53
2022/07/12 05:28:24;;;;;;;9.70;8.88;;;;;;;;;;2074083;28;20562;-55
2022/07/12 05:29:24;;;;;;;8.35;7.70;;;;;;;;;;2074545;28;20176;-53
2022/07/12 05:30:25;;;;;;;7.78;7.07;;;;;;;;;;2074906;28;20161;-57
2022/07/12 05:31:26;;;;;;;9.88;9.07;;;;;;;;;;2074620;28;20200;-55
2022/07/12 05:32:26;;;;;;;10.27;9.45;;;;;;;;;;2074264;28;20250;-58
2022/07/12 05:33:27;;;;;;;11.05;10.15;;;;;;;;;;2074259;28;20246;-56
2022/07/12 05:34:27;;;;;;;10.60;9.52;;;;;;;;;;2073433;28;20173;-59
2022/07/12 05:35:27;;;;;;;11.57;10.57;;;;;;;;;;2075219;28;20276;-57
2022/07/12 05:36:28;;;;;;;11.85;10.95;;;;;;;;;;2074612;28;20618;-57
2022/07/12 05:37:28;;;;;;;12.65;11.45;;;;;;;;;;2074150;28;20192;-57
2022/07/12 05:38:28;;;;;;;14.68;13.48;;;;;;;;;;2074550;28;20699;-57
2022/07/12 05:39:29;;;;;;;14.07;12.65;;;;;;;;;;2077961;28;20175;-56
2022/07/12 05:40:29;;;;;;;18.23;16.45;;;;;;;;;;2079256;28;20246;-56
2022/07/12 05:41:29;;;;;;;13.40;12.10;;;;;;;;;;2074708;28;20161;-56
2022/07/12 05:42:30;;;;;;;18.35;16.70;;;;;;;;;;2082721;28;20180;-55
2022/07/12 05:43:30;;;;;;;17.83;16.17;;;;;;;;;;2081789;28;20244;-55
2022/07/12 05:44:30;;;;;;;17.30;15.70;;;;;;;;;;2073729;28;20552;-55
2022/07/12 05:45:31;;;;;;;15.73;14.32;;;;;;;;;;2074528;28;20212;-55
2022/07/12 05:46:31;;;;;;;15.25;13.88;;;;;;;;;;2073962;28;20189;-55
2022/07/12 05:47:32;;;;;;;14.70;13.25;;;;;;;;;;2073768;28;20173;-57
2022/07/12 05:48:32;;;;;;;14.80;13.43;;;;;;;;;;2074320;28;20456;-56
2022/07/12 05:49:33;;;;;;;14.02;12.77;;;;;;;;;;2077417;28;20275;-56
2022/07/12 05:50:33;;;;;;;13.82;12.52;;;;;;;;;;2076243;28;20193;-54
2022/07/12 05:54:13;;;;;;;13.48;12.18;;;;;;;;;;2070193;28;20611;-57
2022/07/12 05:55:14;;;;;;;13.80;12.38;;;;;;;;;;2073971;28;20224;-52
2022/07/12 05:56:14;;;;;;;11.73;10.55;;;;;;;;;;2074667;28;20167;-56
2022/07/12 05:57:15;;;;;;;13.85;12.18;;;;;;;;;;2074197;28;20256;-55
2022/07/12 05:58:16;;;;;;;13.85;11.55;;;;;;;;;;2075050;28;20310;-55
2022/07/12 05:59:17;;;;;;;12.20;10.93;;;;;;;;;;2072230;28;20176;-56
2022/07/12 06:00:17;;;;;;;11.75;10.73;;;;;;;;;;2069697;28;20177;-56
2022/07/12 06:01:18;;;;;;;11.65;10.45;;;;;;;;;;2071799;28;20220;-58
2022/07/12 06:02:18;;;;;;;11.52;10.32;;;;;;;;;;2073831;28;20169;-54
2022/07/12 06:03:18;;;;;;;13.82;12.32;;;;;;;;;;2070678;28;20166;-53
2022/07/12 06:04:19;;;;;;;12.00;10.80;;;;;;;;;;2067241;28;20671;-54
2022/07/12 06:05:19;;;;;;;11.73;10.60;;;;;;;;;;2073786;28;20851;-53
2022/07/12 06:06:19;;;;;;;12.32;11.02;;;;;;;;;;2073083;28;20192;-55
2022/07/12 06:07:20;;;;;;;11.68;10.48;;;;;;;;;;2072701;28;20173;-53